createdAt,value
2018-04-15T00:02:23.479Z,18.80
2018-04-15T00:04:51.040Z,18.70
2018-04-15T00:07:19.291Z,18.70
2018-04-15T00:09:46.799Z,18.70
2018-04-15T00:12:15.164Z,18.60
2018-04-15T00:14:42.731Z,18.70
2018-04-15T00:17:10.235Z,18.70
2018-04-15T00:19:37.761Z,18.60
2018-04-15T00:22:05.274Z,18.60
2018-04-15T00:24:32.798Z,18.60
2018-04-15T00:27:00.306Z,18.60
2018-04-15T00:29:27.814Z,18.60
2018-04-15T00:31:55.297Z,18.50
2018-04-15T00:34:22.847Z,18.50
2018-04-15T00:36:50.346Z,18.50
2018-04-15T00:39:18.700Z,18.50
2018-04-15T00:41:46.276Z,18.50
2018-04-15T00:44:13.783Z,18.50
2018-04-15T00:46:41.398Z,18.50
2018-04-15T00:49:08.963Z,18.40
2018-04-15T00:51:36.524Z,18.40
2018-04-15T00:54:15.851Z,18.40
2018-04-15T00:56:44.108Z,18.40
2018-04-15T00:59:11.615Z,18.40
2018-04-15T01:01:39.114Z,18.30
2018-04-15T01:04:06.691Z,18.30
2018-04-15T01:06:34.188Z,18.30
2018-04-15T01:09:01.763Z,18.30
2018-04-15T01:11:29.338Z,18.30
2018-04-15T01:13:56.902Z,18.30
2018-04-15T01:16:24.419Z,18.30
2018-04-15T01:18:51.924Z,18.20
2018-04-15T01:21:20.206Z,18.20
2018-04-15T01:23:47.771Z,18.20
2018-04-15T01:26:15.292Z,18.20
2018-04-15T01:28:42.791Z,18.20
2018-04-15T01:31:10.370Z,18.20
2018-04-15T01:33:37.867Z,18.20
2018-04-15T01:36:06.130Z,18.10
2018-04-15T01:38:33.641Z,18.10
2018-04-15T01:41:01.197Z,18.10
2018-04-15T01:43:28.690Z,18.10
2018-04-15T01:45:56.179Z,18.10
2018-04-15T01:48:23.786Z,18.10
2018-04-15T01:50:51.316Z,18.10
2018-04-15T01:53:18.867Z,18.00
2018-04-15T01:55:46.374Z,18.00
2018-04-15T01:58:13.853Z,18.00
2018-04-15T02:00:41.466Z,18.00
2018-04-15T02:03:08.957Z,18.00
2018-04-15T02:05:37.305Z,18.00
2018-04-15T02:08:04.795Z,18.00
2018-04-15T02:10:33.159Z,17.90
2018-04-15T02:13:00.671Z,17.90
2018-04-15T02:15:28.196Z,17.90
2018-04-15T02:17:55.750Z,17.90
2018-04-15T02:20:23.246Z,17.90
2018-04-15T02:22:51.610Z,17.90
2018-04-15T02:25:19.168Z,17.90
2018-04-15T02:27:46.664Z,17.90
2018-04-15T02:30:14.918Z,17.90
2018-04-15T02:32:42.491Z,17.80
2018-04-15T02:35:10.049Z,17.90
2018-04-15T02:37:37.659Z,17.80
2018-04-15T02:40:05.145Z,17.80
2018-04-15T02:42:32.632Z,17.80
2018-04-15T02:45:00.216Z,17.80
2018-04-15T02:47:27.731Z,17.80
2018-04-15T02:49:55.221Z,17.80
2018-04-15T02:52:22.789Z,17.80
2018-04-15T02:54:50.282Z,17.80
2018-04-15T02:57:18.529Z,17.80
2018-04-15T02:59:46.111Z,17.80
2018-04-15T03:02:13.677Z,17.80
2018-04-15T03:04:41.941Z,17.70
2018-04-15T03:07:09.525Z,17.70
2018-04-15T03:09:37.789Z,17.70
2018-04-15T03:12:05.296Z,17.70
2018-04-15T03:14:33.572Z,17.70
2018-04-15T03:17:01.844Z,17.70
2018-04-15T03:19:29.399Z,17.70
2018-04-15T03:21:56.896Z,17.70
2018-04-15T03:24:25.205Z,17.70
2018-04-15T03:26:52.709Z,17.70
2018-04-15T03:29:20.226Z,17.70
2018-04-15T03:31:47.725Z,17.70
2018-04-15T03:34:15.249Z,17.70
2018-04-15T03:36:42.739Z,17.70
2018-04-15T03:39:10.253Z,17.70
2018-04-15T03:41:37.751Z,17.70
2018-04-15T03:44:05.231Z,17.70
2018-04-15T03:46:32.731Z,17.70
2018-04-15T03:49:00.221Z,17.70
2018-04-15T03:51:28.501Z,17.60
2018-04-15T03:53:56.750Z,17.70
2018-04-15T03:56:24.241Z,17.60
2018-04-15T03:58:52.544Z,17.60
2018-04-15T04:01:20.036Z,17.60
2018-04-15T04:03:47.543Z,17.60
2018-04-15T04:06:15.059Z,17.60
2018-04-15T04:08:42.557Z,17.60
2018-04-15T04:11:10.055Z,17.60
2018-04-15T04:13:38.316Z,17.60
2018-04-15T04:16:05.872Z,17.60
2018-04-15T04:18:45.128Z,17.60
2018-04-15T04:21:25.355Z,17.60
2018-04-15T04:24:19.624Z,17.50
2018-04-15T04:26:47.137Z,17.60
2018-04-15T04:29:14.635Z,17.50
2018-04-15T04:31:42.125Z,17.50
2018-04-15T04:34:09.604Z,17.50
2018-04-15T04:36:37.879Z,17.50
2018-04-15T04:39:06.192Z,17.50
2018-04-15T04:41:33.721Z,17.50
2018-04-15T04:44:01.226Z,17.50
2018-04-15T04:46:28.713Z,17.50
2018-04-15T04:48:56.217Z,17.50
2018-04-15T04:51:23.726Z,17.50
2018-04-15T04:53:51.229Z,17.50
2018-04-15T04:56:18.805Z,17.50
2018-04-15T04:58:47.053Z,17.40
2018-04-15T05:01:14.651Z,17.40
2018-04-15T05:03:42.160Z,17.40
2018-04-15T05:06:09.646Z,17.40
2018-04-15T05:08:37.239Z,17.40
2018-04-15T05:11:04.816Z,17.40
2018-04-15T05:13:32.350Z,17.40
2018-04-15T05:15:59.862Z,17.40
2018-04-15T05:18:28.222Z,17.40
2018-04-15T05:20:55.718Z,17.40
2018-04-15T05:23:23.971Z,17.40
2018-04-15T05:25:51.547Z,17.40
2018-04-15T05:28:19.826Z,17.30
2018-04-15T05:30:47.317Z,17.40
2018-04-15T05:33:14.844Z,17.30
2018-04-15T05:35:42.352Z,17.30
2018-04-15T05:38:10.607Z,17.30
2018-04-15T05:40:38.131Z,17.30
2018-04-15T05:43:05.620Z,17.30
2018-04-15T05:45:33.149Z,17.30
2018-04-15T05:48:00.957Z,17.30
2018-04-15T05:50:28.447Z,17.30
2018-04-15T05:52:56.713Z,17.30
2018-04-15T05:55:24.208Z,17.30
2018-04-15T05:57:51.707Z,17.40
2018-04-15T06:00:19.197Z,17.40
2018-04-15T06:02:46.754Z,17.40
2018-04-15T06:05:14.390Z,17.40
2018-04-15T06:07:42.611Z,17.40
2018-04-15T06:10:10.107Z,17.40
2018-04-15T06:12:38.378Z,17.50
2018-04-15T06:15:06.647Z,17.50
2018-04-15T06:17:34.205Z,17.50
2018-04-15T06:20:01.705Z,17.50
2018-04-15T06:22:29.953Z,17.60
2018-04-15T06:24:57.444Z,17.50
2018-04-15T06:27:24.934Z,17.60
2018-04-15T06:29:52.432Z,17.60
2018-04-15T06:32:20.001Z,17.60
2018-04-15T06:34:47.505Z,17.70
2018-04-15T06:37:14.997Z,17.70
2018-04-15T06:39:42.545Z,17.80
2018-04-15T06:42:10.480Z,17.80
2018-04-15T06:44:38.042Z,17.90
2018-04-15T06:47:05.528Z,17.90
2018-04-15T06:49:33.885Z,18.10
2018-04-15T06:52:01.381Z,18.10
2018-04-15T06:54:29.642Z,18.20
2018-04-15T06:56:57.158Z,18.20
2018-04-15T06:59:24.655Z,18.20
2018-04-15T07:01:52.906Z,18.30
2018-04-15T07:04:20.380Z,18.30
2018-04-15T07:06:47.899Z,18.40
2018-04-15T07:09:16.169Z,18.40
2018-04-15T07:11:43.721Z,18.40
2018-04-15T07:14:11.237Z,18.40
2018-04-15T07:16:38.734Z,18.50
2018-04-15T07:19:06.311Z,18.50
2018-04-15T07:21:33.818Z,18.50
2018-04-15T07:24:01.329Z,18.50
2018-04-15T07:26:28.826Z,18.60
2018-04-15T07:28:57.086Z,18.70
2018-04-15T07:31:24.589Z,18.70
2018-04-15T07:33:52.092Z,18.70
2018-04-15T07:36:19.587Z,18.80
2018-04-15T07:38:47.095Z,18.80
2018-04-15T07:41:14.592Z,18.80
2018-04-15T07:43:42.871Z,18.80
2018-04-15T07:46:10.369Z,18.90
2018-04-15T07:48:37.917Z,18.90
2018-04-15T07:51:05.404Z,18.90
2018-04-15T07:53:33.681Z,18.90
2018-04-15T07:56:01.193Z,18.90
2018-04-15T07:58:28.694Z,18.90
2018-04-15T08:00:56.204Z,18.90
2018-04-15T08:03:23.725Z,18.90
2018-04-15T08:05:51.306Z,19.00
2018-04-15T08:08:19.595Z,19.00
2018-04-15T08:10:47.840Z,18.90
2018-04-15T08:13:15.456Z,18.90
2018-04-15T08:15:43.738Z,19.00
2018-04-15T08:18:11.990Z,19.00
2018-04-15T08:20:39.508Z,19.00
2018-04-15T08:23:07.025Z,19.00
2018-04-15T08:25:34.553Z,19.00
2018-04-15T08:28:02.060Z,19.00
2018-04-15T08:30:29.554Z,19.10
2018-04-15T08:32:57.073Z,19.20
2018-04-15T08:35:24.560Z,19.20
2018-04-15T08:37:52.828Z,19.30
2018-04-15T08:40:20.336Z,19.30
2018-04-15T08:42:47.862Z,19.30
2018-04-15T08:45:16.154Z,19.40
2018-04-15T08:47:44.517Z,19.40
2018-04-15T08:50:12.014Z,19.40
2018-04-15T08:52:39.511Z,19.40
2018-04-15T08:55:07.002Z,19.40
2018-04-15T08:57:34.545Z,19.40
2018-04-15T09:00:02.046Z,19.40
2018-04-15T09:02:29.536Z,19.40
2018-04-15T09:04:57.062Z,19.50
2018-04-15T09:07:24.556Z,19.50
2018-04-15T09:09:52.841Z,19.50
2018-04-15T09:12:21.221Z,19.40
2018-04-15T09:14:49.474Z,19.50
2018-04-15T09:17:16.975Z,19.40
2018-04-15T09:19:44.469Z,19.50
2018-04-15T09:22:11.987Z,19.50
2018-04-15T09:24:40.250Z,19.50
2018-04-15T09:27:07.749Z,19.50
2018-04-15T09:29:35.245Z,19.50
2018-04-15T09:32:02.849Z,19.60
2018-04-15T09:34:30.409Z,19.60
2018-04-15T09:36:57.916Z,19.60
2018-04-15T09:39:25.480Z,19.60
2018-04-15T09:41:52.947Z,19.60
2018-04-15T09:44:20.436Z,19.60
2018-04-15T09:46:47.942Z,19.70
2018-04-15T09:49:15.436Z,19.70
2018-04-15T09:51:42.950Z,19.80
2018-04-15T09:54:10.445Z,19.80
2018-04-15T09:56:38.853Z,19.80
2018-04-15T09:59:06.347Z,19.80
2018-04-15T10:01:33.897Z,19.80
2018-04-15T10:04:01.395Z,19.80
2018-04-15T10:06:28.899Z,19.80
2018-04-15T10:08:57.260Z,19.90
2018-04-15T10:11:24.751Z,19.80
2018-04-15T10:13:52.249Z,19.80
2018-04-15T10:16:19.759Z,19.80
2018-04-15T10:18:49.924Z,19.80
2018-04-15T10:21:17.427Z,19.80
2018-04-15T10:23:44.933Z,19.80
2018-04-15T10:26:13.200Z,19.80
2018-04-15T10:28:41.486Z,19.80
2018-04-15T10:31:09.749Z,19.80
2018-04-15T10:33:37.247Z,19.80
2018-04-15T10:36:04.752Z,19.80
2018-04-15T10:38:32.250Z,19.80
2018-04-15T10:40:59.783Z,19.80
2018-04-15T10:43:27.276Z,19.80
2018-04-15T10:45:54.792Z,19.80
2018-04-15T10:48:22.321Z,19.80
2018-04-15T10:50:49.780Z,19.80
2018-04-15T10:53:18.054Z,19.80
2018-04-15T10:55:45.565Z,19.80
2018-04-15T10:58:19.932Z,19.80
2018-04-15T11:00:47.438Z,19.70
2018-04-15T11:03:14.931Z,19.70
2018-04-15T11:05:42.427Z,19.70
2018-04-15T11:08:09.927Z,19.80
2018-04-15T11:10:37.436Z,19.70
2018-04-15T11:13:05.729Z,19.80
2018-04-15T11:15:33.233Z,19.80
2018-04-15T11:18:01.552Z,19.90
2018-04-15T11:20:29.062Z,19.80
2018-04-15T11:22:56.578Z,19.90
2018-04-15T11:25:24.071Z,19.90
2018-04-15T11:27:51.581Z,19.90
2018-04-15T11:30:19.072Z,19.90
2018-04-15T11:32:46.569Z,19.90
2018-04-15T11:35:14.086Z,19.90
2018-04-15T11:37:41.579Z,19.90
2018-04-15T11:40:09.853Z,20.00
2018-04-15T11:42:37.347Z,20.00
2018-04-15T11:45:04.853Z,20.00
2018-04-15T11:47:32.370Z,20.00
2018-04-15T11:49:59.878Z,20.00
2018-04-15T11:52:27.376Z,20.00
2018-04-15T11:54:54.881Z,20.10
2018-04-15T11:57:23.147Z,20.10
2018-04-15T11:59:50.652Z,20.00
2018-04-15T12:02:18.144Z,20.10
2018-04-15T12:04:45.621Z,20.10
2018-04-15T12:07:13.105Z,20.20
2018-04-15T12:09:40.590Z,20.20
2018-04-15T12:12:08.874Z,20.20
2018-04-15T12:14:37.121Z,20.20
2018-04-15T12:17:04.622Z,20.20
2018-04-15T12:19:32.894Z,20.30
2018-04-15T12:22:01.169Z,20.30
2018-04-15T12:24:28.691Z,20.30
2018-04-15T12:26:56.198Z,20.30
2018-04-15T12:29:23.690Z,20.30
2018-04-15T12:31:51.186Z,20.30
2018-04-15T12:34:18.775Z,20.40
2018-04-15T12:36:46.354Z,20.40
2018-04-15T12:39:13.844Z,20.40
2018-04-15T12:41:42.148Z,20.40
2018-04-15T12:44:09.649Z,20.40
2018-04-15T12:46:37.234Z,20.40
2018-04-15T12:49:04.777Z,20.40
2018-04-15T12:51:32.359Z,20.40
2018-04-15T12:53:59.867Z,20.40
2018-04-15T12:56:27.401Z,20.40
2018-04-15T12:58:55.647Z,20.40
2018-04-15T13:01:23.170Z,20.40
2018-04-15T13:03:50.672Z,20.40
2018-04-15T13:06:18.262Z,20.40
2018-04-15T13:08:45.829Z,20.30
2018-04-15T13:11:13.319Z,20.30
2018-04-15T13:13:41.619Z,20.30
2018-04-15T13:16:09.112Z,20.30
2018-04-15T13:18:36.601Z,20.30
2018-04-15T13:21:04.126Z,20.30
2018-04-15T13:23:31.620Z,20.20
2018-04-15T13:25:59.139Z,20.20
2018-04-15T13:28:26.629Z,20.20
2018-04-15T13:30:54.130Z,20.20
2018-04-15T13:33:21.641Z,20.20
2018-04-15T13:35:49.145Z,20.20
2018-04-15T13:38:17.434Z,20.20
2018-04-15T13:40:44.953Z,20.20
2018-04-15T13:43:12.459Z,20.30
2018-04-15T13:45:39.955Z,20.30
2018-04-15T13:48:08.217Z,20.40
2018-04-15T13:50:35.783Z,20.40
2018-04-15T13:53:03.279Z,20.40
2018-04-15T13:55:30.799Z,20.40
2018-04-15T13:57:58.301Z,20.40
2018-04-15T14:00:26.566Z,20.50
2018-04-15T14:02:54.085Z,20.50
2018-04-15T14:05:21.591Z,20.50
2018-04-15T14:07:49.159Z,20.50
2018-04-15T14:10:17.445Z,20.50
2018-04-15T14:12:45.706Z,20.50
2018-04-15T14:15:13.232Z,20.40
2018-04-15T14:17:40.740Z,20.50
2018-04-15T14:20:08.246Z,20.50
2018-04-15T14:22:35.752Z,20.50
2018-04-15T14:25:03.340Z,20.50
2018-04-15T14:27:30.863Z,20.50
2018-04-15T14:29:58.354Z,20.60
2018-04-15T14:32:25.861Z,20.60
2018-04-15T14:34:53.359Z,20.60
2018-04-15T14:37:20.859Z,20.70
2018-04-15T14:39:48.371Z,20.70
2018-04-15T14:42:15.901Z,20.70
2018-04-15T14:44:44.170Z,20.80
2018-04-15T14:47:11.667Z,20.70
2018-04-15T14:49:39.175Z,20.80
2018-04-15T14:52:06.685Z,20.80
2018-04-15T14:54:35.373Z,20.90
2018-04-15T14:57:03.668Z,20.90
2018-04-15T14:59:31.924Z,20.90
2018-04-15T15:01:59.484Z,20.90
2018-04-15T15:04:27.005Z,20.90
2018-04-15T15:06:54.498Z,20.90
2018-04-15T15:09:22.023Z,20.90
2018-04-15T15:11:49.527Z,21.00
2018-04-15T15:14:17.040Z,21.00
2018-04-15T15:16:44.553Z,20.90
2018-04-15T15:19:12.163Z,21.00
2018-04-15T15:21:40.447Z,20.90
2018-04-15T15:24:08.716Z,20.90
2018-04-15T15:26:37.119Z,20.90
2018-04-15T15:29:04.678Z,21.00
2018-04-15T15:31:32.938Z,21.00
2018-04-15T15:34:00.440Z,21.00
2018-04-15T15:36:27.930Z,21.00
2018-04-15T15:38:55.520Z,21.00
2018-04-15T15:41:23.045Z,21.00
2018-04-15T15:43:50.557Z,21.00
2018-04-15T15:46:18.162Z,21.00
2018-04-15T15:48:45.794Z,21.00
2018-04-15T15:51:13.487Z,21.00
2018-04-15T15:53:41.802Z,21.00
2018-04-15T15:56:09.301Z,21.00
2018-04-15T15:58:36.870Z,21.00
2018-04-15T16:01:04.380Z,21.00
2018-04-15T16:03:31.937Z,21.00
2018-04-15T16:05:59.467Z,21.00
2018-04-15T16:08:26.978Z,21.00
2018-04-15T16:10:54.501Z,21.00
2018-04-15T16:13:22.008Z,21.00
2018-04-15T16:15:49.520Z,21.00
2018-04-15T16:18:17.062Z,21.00
2018-04-15T16:20:44.552Z,20.90
2018-04-15T16:23:12.063Z,21.00
2018-04-15T16:25:39.575Z,20.90
2018-04-15T16:28:07.073Z,20.90
2018-04-15T16:30:35.348Z,20.90
2018-04-15T16:33:03.621Z,20.90
2018-04-15T16:35:31.880Z,20.90
2018-04-15T16:37:59.467Z,20.90
2018-04-15T16:40:26.966Z,20.90
2018-04-15T16:42:54.528Z,20.90
2018-04-15T16:45:22.027Z,20.80
2018-04-15T16:47:49.553Z,20.80
2018-04-15T16:50:17.797Z,20.80
2018-04-15T16:52:45.322Z,20.80
2018-04-15T16:55:12.939Z,20.80
2018-04-15T16:57:40.421Z,20.80
2018-04-15T17:00:08.771Z,20.80
2018-04-15T17:02:37.071Z,20.80
2018-04-15T17:05:04.646Z,20.80
2018-04-15T17:07:32.934Z,20.80
2018-04-15T17:10:01.291Z,20.80
2018-04-15T17:12:28.868Z,20.80
2018-04-15T17:14:56.388Z,20.80
2018-04-15T17:17:23.983Z,20.80
2018-04-15T17:19:51.488Z,20.80
2018-04-15T17:22:18.999Z,20.80
2018-04-15T17:24:46.604Z,20.80
2018-04-15T17:27:14.979Z,20.70
2018-04-15T17:29:42.476Z,20.70
2018-04-15T17:32:10.015Z,20.70
2018-04-15T17:34:37.508Z,20.70
2018-04-15T17:37:05.021Z,20.70
2018-04-15T17:39:32.523Z,20.60
2018-04-15T17:42:00.815Z,20.60
2018-04-15T17:44:28.315Z,20.60
2018-04-15T17:46:55.835Z,20.60
2018-04-15T17:49:24.104Z,20.60
2018-04-15T17:51:52.380Z,20.60
2018-04-15T17:54:20.659Z,20.50
2018-04-15T17:56:48.940Z,20.50
2018-04-15T17:59:16.446Z,20.50
2018-04-15T18:01:43.938Z,20.50
2018-04-15T18:04:11.445Z,20.50
2018-04-15T18:06:39.746Z,20.40
2018-04-15T18:09:07.279Z,20.40
2018-04-15T18:11:34.819Z,20.40
2018-04-15T18:14:02.394Z,20.40
2018-04-15T18:16:29.918Z,20.40
2018-04-15T18:18:57.439Z,20.30
2018-04-15T18:21:25.721Z,20.30
2018-04-15T18:23:53.249Z,20.20
2018-04-15T18:26:20.757Z,20.30
2018-04-15T18:28:49.049Z,20.20
2018-04-15T18:31:17.318Z,20.20
2018-04-15T18:33:44.865Z,20.20
2018-04-15T18:36:12.398Z,20.20
2018-04-15T18:38:39.917Z,20.20
2018-04-15T18:41:08.275Z,20.20
2018-04-15T18:43:35.910Z,20.20
2018-04-15T18:46:04.257Z,20.20
2018-04-15T18:48:32.581Z,20.20
2018-04-15T18:51:00.241Z,20.10
2018-04-15T18:53:27.800Z,20.20
2018-04-15T18:55:55.477Z,20.20
2018-04-15T18:58:23.182Z,20.20
2018-04-15T19:00:50.924Z,20.10
2018-04-15T19:03:18.617Z,20.10
2018-04-15T19:05:46.401Z,20.10
2018-04-15T19:08:14.152Z,20.10
2018-04-15T19:10:42.592Z,20.10
2018-04-15T19:13:10.282Z,20.10
2018-04-15T19:15:37.990Z,20.10
2018-04-15T19:18:05.664Z,20.10
2018-04-15T19:20:33.389Z,20.10
2018-04-15T19:23:01.038Z,20.10
2018-04-15T19:25:28.893Z,20.10
2018-04-15T19:27:57.342Z,20.00
2018-04-15T19:30:25.213Z,20.00
2018-04-15T19:32:52.883Z,20.00
2018-04-15T19:35:20.514Z,19.90
2018-04-15T19:37:48.135Z,20.00
2018-04-15T19:40:15.797Z,20.00
2018-04-15T19:42:43.472Z,19.90
2018-04-15T19:45:11.082Z,19.90
2018-04-15T19:47:38.991Z,19.90
2018-04-15T19:50:07.936Z,19.90
2018-04-15T19:52:35.625Z,19.90
2018-04-15T19:55:03.250Z,19.90
2018-04-15T19:57:31.063Z,19.90
2018-04-15T19:59:58.717Z,19.90
2018-04-15T20:02:26.292Z,19.90
2018-04-15T20:04:53.887Z,19.90
2018-04-15T20:07:21.395Z,19.80
2018-04-15T20:09:49.765Z,19.80
2018-04-15T20:12:17.368Z,19.80
2018-04-15T20:14:45.043Z,19.80
2018-04-15T20:17:12.681Z,19.80
2018-04-15T20:19:41.019Z,19.80
2018-04-15T20:22:08.521Z,19.80
2018-04-15T20:24:36.078Z,19.80
2018-04-15T20:27:03.684Z,19.80
2018-04-15T20:29:31.225Z,19.80
2018-04-15T20:31:59.503Z,19.80
2018-04-15T20:34:27.023Z,19.80
2018-04-15T20:36:54.570Z,19.80
2018-04-15T20:39:22.075Z,19.70
2018-04-15T20:41:49.595Z,19.70
2018-04-15T20:44:18.501Z,19.70
2018-04-15T20:46:46.005Z,19.70
2018-04-15T20:49:13.538Z,19.70
2018-04-15T20:51:41.103Z,19.60
2018-04-15T20:54:08.645Z,19.70
2018-04-15T20:56:36.178Z,19.60
2018-04-15T20:59:03.687Z,19.60
2018-04-15T21:01:31.267Z,19.60
2018-04-15T21:03:58.770Z,19.60
2018-04-15T21:06:27.049Z,19.60
2018-04-15T21:08:54.604Z,19.60
2018-04-15T21:11:22.185Z,19.60
2018-04-15T21:13:49.743Z,19.60
2018-04-15T21:16:17.254Z,19.50
2018-04-15T21:18:44.774Z,19.50
2018-04-15T21:21:12.323Z,19.50
2018-04-15T21:23:39.822Z,19.50
2018-04-15T21:26:08.192Z,19.50
2018-04-15T21:28:36.481Z,19.50
2018-04-15T21:31:03.976Z,19.40
2018-04-15T21:33:31.486Z,19.50
2018-04-15T21:35:59.088Z,19.40
2018-04-15T21:38:27.533Z,19.40
2018-04-15T21:40:55.094Z,19.40
2018-04-15T21:43:22.684Z,19.40
2018-04-15T21:45:50.258Z,19.40
2018-04-15T21:48:17.754Z,19.40
2018-04-15T21:50:45.273Z,19.40
2018-04-15T21:53:12.782Z,19.30
2018-04-15T21:55:40.283Z,19.30
2018-04-15T21:58:07.784Z,19.30
2018-04-15T22:00:36.165Z,19.30
2018-04-15T22:03:03.685Z,19.30
2018-04-15T22:05:31.191Z,19.30
2018-04-15T22:07:58.703Z,19.30
2018-04-15T22:10:26.314Z,19.30
2018-04-15T22:13:08.717Z,19.30
2018-04-15T22:15:36.267Z,19.20
2018-04-15T22:18:03.854Z,19.20
2018-04-15T22:20:31.417Z,19.20
2018-04-15T22:22:58.920Z,19.20
2018-04-15T22:25:26.412Z,19.20
2018-04-15T22:27:53.999Z,19.20
2018-04-15T22:30:21.493Z,19.20
2018-04-15T22:32:49.866Z,19.10
2018-04-15T22:35:17.378Z,19.10
2018-04-15T22:37:44.893Z,19.10
2018-04-15T22:40:12.384Z,19.10
2018-04-15T22:42:39.920Z,19.10
2018-04-15T22:45:07.484Z,19.00
2018-04-15T22:47:34.981Z,19.00
2018-04-15T22:50:08.176Z,19.00
2018-04-15T22:52:35.688Z,19.00
2018-04-15T22:55:03.198Z,19.00
2018-04-15T22:57:31.548Z,18.90
2018-04-15T22:59:59.045Z,18.90
2018-04-15T23:02:27.309Z,18.90
2018-04-15T23:04:54.808Z,18.90
2018-04-15T23:07:22.306Z,18.90
2018-04-15T23:09:49.811Z,18.80
2018-04-15T23:12:18.075Z,18.80
2018-04-15T23:14:45.570Z,18.80
2018-04-15T23:17:13.079Z,18.80
2018-04-15T23:19:40.666Z,18.80
2018-04-15T23:22:08.222Z,18.70
2018-04-15T23:24:35.713Z,18.70
2018-04-15T23:27:03.981Z,18.70
2018-04-15T23:29:31.487Z,18.70
2018-04-15T23:31:58.992Z,18.70
2018-04-15T23:34:26.575Z,18.70
2018-04-15T23:36:54.086Z,18.60
2018-04-15T23:39:21.602Z,18.60
2018-04-15T23:41:49.111Z,18.60
2018-04-15T23:44:16.635Z,18.60
2018-04-15T23:46:44.194Z,18.60
2018-04-15T23:49:11.699Z,18.60
2018-04-15T23:51:39.188Z,18.60
2018-04-15T23:54:06.682Z,18.50
2018-04-15T23:56:34.249Z,18.50
2018-04-15T23:59:01.745Z,18.50
